Time;durP1;ratioP1;P1;durP2;ratioP2;P2;SDS_P1;SDS_P2;PMS_P1;PMS_P2;Temp;Humidity;BMP_temperature;BMP_pressure;BME280_temperature;BME280_humidity;BME280_pressure;Samples;Min_cycle;Max_cycle;Signal;HPM_P1;HPM_P2
2022/05/17 00:03:00;;;;;;;35.53;20.70;;;;;;;;;;10431391;28;20073;-73
2022/05/17 00:08:02;;;;;;;42.65;20.95;;;;;;;;;;10418059;28;20562;-74
2022/05/17 00:13:03;;;;;;;36.28;21.50;;;;;;;;;;10437682;28;20033;-74
2022/05/17 00:18:05;;;;;;;32.00;20.55;;;;;;;;;;10436496;28;20094;-74
2022/05/17 00:23:08;;;;;;;33.90;21.80;;;;;;;;;;10421000;28;20041;-74
2022/05/17 00:28:09;;;;;;;34.63;20.15;;;;;;;;;;10437858;28;20041;-74
2022/05/17 00:33:11;;;;;;;41.80;20.75;;;;;;;;;;10435724;28;20116;-74
2022/05/17 00:38:13;;;;;;;37.85;21.52;;;;;;;;;;10426264;28;20131;-74
2022/05/17 00:43:21;;;;;;;39.40;21.98;;;;;;;;;;10433252;28;20424;-74
2022/05/17 00:48:23;;;;;;;33.00;20.42;;;;;;;;;;10438470;28;20055;-74
2022/05/17 00:53:32;;;;;;;33.17;21.33;;;;;;;;;;10422137;28;20033;-74
2022/05/17 00:58:35;;;;;;;40.00;21.80;;;;;;;;;;10416851;28;20040;-74
2022/05/17 01:03:57;;;;;;;41.95;21.65;;;;;;;;;;10442686;28;20081;-74
2022/05/17 01:08:58;;;;;;;38.45;21.85;;;;;;;;;;10438060;28;20542;-74
2022/05/17 01:19:20;;;;;;;37.95;22.83;;;;;;;;;;10426971;28;20132;-74
2022/05/17 01:24:22;;;;;;;37.97;22.23;;;;;;;;;;10435194;28;20385;-74
2022/05/17 01:29:23;;;;;;;37.65;22.90;;;;;;;;;;10439851;28;20056;-74
2022/05/17 01:34:25;;;;;;;38.63;22.95;;;;;;;;;;10431904;28;20045;-74
2022/05/17 01:39:28;;;;;;;35.42;22.38;;;;;;;;;;10419529;28;20095;-74
2022/05/17 01:44:30;;;;;;;37.22;23.65;;;;;;;;;;10431319;28;20076;-74
2022/05/17 01:49:31;;;;;;;39.03;22.23;;;;;;;;;;10417883;28;20037;-74
2022/05/17 01:54:33;;;;;;;35.65;22.30;;;;;;;;;;10429997;28;20068;-74
2022/05/17 01:59:34;;;;;;;38.90;22.27;;;;;;;;;;10429541;28;20160;-74
2022/05/17 02:04:36;;;;;;;36.25;22.20;;;;;;;;;;10422719;28;20037;-74
2022/05/17 02:09:38;;;;;;;35.83;22.85;;;;;;;;;;10412334;28;20119;-74
2022/05/17 02:14:39;;;;;;;37.58;21.88;;;;;;;;;;10426476;28;20065;-74
2022/05/17 02:19:41;;;;;;;36.05;22.58;;;;;;;;;;10414221;28;20055;-74
2022/05/17 02:24:42;;;;;;;38.63;22.70;;;;;;;;;;10437554;28;20243;-74
2022/05/17 02:29:44;;;;;;;39.08;23.48;;;;;;;;;;10416867;28;20075;-74
2022/05/17 02:34:46;;;;;;;39.33;21.70;;;;;;;;;;10421787;28;20090;-74
2022/05/17 02:39:47;;;;;;;37.15;23.10;;;;;;;;;;10411500;28;20051;-74
2022/05/17 02:44:49;;;;;;;36.55;23.80;;;;;;;;;;10432377;28;20042;-74
2022/05/17 02:49:50;;;;;;;35.60;22.08;;;;;;;;;;10410235;28;20306;-73
2022/05/17 02:54:51;;;;;;;37.03;21.08;;;;;;;;;;10427375;28;20109;-74
2022/05/17 02:59:53;;;;;;;37.88;21.38;;;;;;;;;;10445798;28;20094;-74
2022/05/17 03:04:54;;;;;;;36.63;21.65;;;;;;;;;;10435113;28;20583;-74
2022/05/17 03:09:56;;;;;;;35.40;21.25;;;;;;;;;;10431307;28;20044;-75
2022/05/17 03:14:59;;;;;;;33.45;21.17;;;;;;;;;;10413264;28;20041;-74
2022/05/17 03:20:01;;;;;;;32.22;20.30;;;;;;;;;;10408869;28;20041;-74
2022/05/17 03:25:03;;;;;;;31.58;20.33;;;;;;;;;;10430103;28;20136;-74
2022/05/17 03:30:25;;;;;;;32.72;20.25;;;;;;;;;;10409128;28;20053;-74
2022/05/17 03:35:26;;;;;;;32.83;21.17;;;;;;;;;;10450317;28;20058;-74
2022/05/17 03:40:28;;;;;;;38.03;20.58;;;;;;;;;;10422830;28;20048;-74
2022/05/17 03:45:29;;;;;;;31.48;19.70;;;;;;;;;;10436046;28;20049;-73
2022/05/17 03:50:31;;;;;;;33.65;21.10;;;;;;;;;;10425695;28;20636;-74
2022/05/17 03:55:32;;;;;;;31.13;19.90;;;;;;;;;;10439371;28;20044;-74
2022/05/17 04:00:34;;;;;;;35.33;19.67;;;;;;;;;;10426476;28;20527;-74
2022/05/17 04:05:35;;;;;;;32.65;20.17;;;;;;;;;;10413089;28;20580;-74
2022/05/17 04:10:37;;;;;;;32.63;19.65;;;;;;;;;;10434477;28;20041;-73
2022/05/17 04:15:38;;;;;;;33.25;20.95;;;;;;;;;;10439381;28;20051;-74
2022/05/17 04:20:40;;;;;;;36.25;21.55;;;;;;;;;;10395872;28;20045;-74
2022/05/17 04:25:43;;;;;;;34.33;21.00;;;;;;;;;;10431913;28;20049;-74
2022/05/17 04:30:44;;;;;;;35.85;21.25;;;;;;;;;;10432384;28;20087;-74
2022/05/17 04:35:46;;;;;;;34.38;21.92;;;;;;;;;;10428347;28;20049;-74
2022/05/17 04:40:49;;;;;;;39.03;21.17;;;;;;;;;;10414300;28;20464;-74
2022/05/17 04:45:52;;;;;;;40.55;21.23;;;;;;;;;;10418791;28;20041;-74
2022/05/17 04:50:54;;;;;;;31.60;20.20;;;;;;;;;;10406166;28;20049;-74
2022/05/17 04:56:01;;;;;;;32.35;20.08;;;;;;;;;;10413325;28;20047;-74
2022/05/17 05:01:03;;;;;;;38.78;20.90;;;;;;;;;;10425403;28;20141;-74
2022/05/17 05:06:04;;;;;;;30.85;20.17;;;;;;;;;;10417390;28;20053;-74
2022/05/17 05:11:06;;;;;;;43.78;20.60;;;;;;;;;;10427169;28;20073;-74
2022/05/17 05:16:12;;;;;;;30.73;20.08;;;;;;;;;;10435419;28;20055;-75
2022/05/17 05:21:15;;;;;;;31.60;18.92;;;;;;;;;;10407295;28;20046;-76
2022/05/17 05:26:17;;;;;;;37.97;19.20;;;;;;;;;;10441648;28;20412;-75
2022/05/17 05:31:18;;;;;;;27.70;18.27;;;;;;;;;;10425073;28;20056;-76
2022/05/17 05:36:20;;;;;;;28.13;17.67;;;;;;;;;;10416149;28;20116;-76
2022/05/17 05:41:21;;;;;;;28.63;16.95;;;;;;;;;;10429880;28;20044;-77
2022/05/17 05:46:23;;;;;;;26.48;15.93;;;;;;;;;;10429583;28;20048;-77
2022/05/17 05:51:24;;;;;;;30.58;15.27;;;;;;;;;;10430352;28;20091;-77
2022/05/17 05:56:26;;;;;;;28.40;14.93;;;;;;;;;;10425800;28;20055;-77
2022/05/17 06:01:27;;;;;;;28.38;14.13;;;;;;;;;;10407134;28;20041;-77
2022/05/17 06:06:30;;;;;;;21.83;13.52;;;;;;;;;;10434152;28;20072;-77
2022/05/17 06:11:31;;;;;;;28.10;13.65;;;;;;;;;;10423032;28;20499;-78
2022/05/17 06:16:33;;;;;;;22.85;12.60;;;;;;;;;;10431575;28;20631;-77
2022/05/17 06:21:36;;;;;;;22.02;12.05;;;;;;;;;;10427157;28;20512;-78
2022/05/17 06:26:38;;;;;;;24.27;11.50;;;;;;;;;;10395048;28;20041;-75
2022/05/17 06:31:39;;;;;;;20.98;11.02;;;;;;;;;;10420754;28;20125;-73
2022/05/17 06:36:41;;;;;;;22.67;10.70;;;;;;;;;;10412354;28;20100;-74
2022/05/17 06:41:58;;;;;;;20.90;10.65;;;;;;;;;;10425761;28;20083;-73
2022/05/17 06:47:01;;;;;;;19.50;9.77;;;;;;;;;;10413513;28;20045;-73
2022/05/17 06:52:03;;;;;;;19.70;10.52;;;;;;;;;;10429152;28;20076;-74
2022/05/17 06:57:06;;;;;;;22.85;10.10;;;;;;;;;;10433389;28;20570;-74
2022/05/17 07:02:08;;;;;;;26.88;8.88;;;;;;;;;;10432028;28;20132;-75
2022/05/17 07:07:10;;;;;;;16.17;8.45;;;;;;;;;;10444767;28;20132;-79
2022/05/17 07:17:31;;;;;;;16.10;7.75;;;;;;;;;;10439237;28;20064;-79
2022/05/17 07:22:32;;;;;;;16.88;8.35;;;;;;;;;;10431585;28;20061;-78
2022/05/17 07:27:34;;;;;;;17.25;7.55;;;;;;;;;;10432220;28;20520;-78
2022/05/17 07:32:35;;;;;;;20.92;8.18;;;;;;;;;;10447521;28;20697;-78
2022/05/17 07:37:37;;;;;;;21.20;9.43;;;;;;;;;;10435018;28;20046;-77
2022/05/17 07:42:41;;;;;;;16.50;6.85;;;;;;;;;;10451188;28;20055;-76
2022/05/17 07:47:42;;;;;;;13.65;6.97;;;;;;;;;;10413899;28;20045;-76
2022/05/17 07:52:44;;;;;;;14.80;6.70;;;;;;;;;;10429880;28;20045;-72
2022/05/17 07:57:46;;;;;;;18.52;7.03;;;;;;;;;;10447122;28;20085;-76
2022/05/17 08:02:47;;;;;;;17.52;6.45;;;;;;;;;;10445831;28;20094;-77
2022/05/17 08:07:49;;;;;;;20.95;7.35;;;;;;;;;;10440148;28;20056;-77
2022/05/17 08:12:51;;;;;;;17.33;6.45;;;;;;;;;;10437592;28;20044;-75
2022/05/17 08:17:53;;;;;;;19.35;6.55;;;;;;;;;;10421915;28;20064;-76
2022/05/17 08:22:54;;;;;;;17.10;6.68;;;;;;;;;;10434364;28;20045;-75
2022/05/17 08:27:56;;;;;;;16.70;6.40;;;;;;;;;;10421169;28;20328;-75
2022/05/17 08:33:17;;;;;;;16.30;7.88;;;;;;;;;;10457044;28;20548;-70
2022/05/17 08:38:20;;;;;;;15.77;7.18;;;;;;;;;;10431362;28;20761;-77
2022/05/17 08:43:23;;;;;;;15.65;6.20;;;;;;;;;;10440656;28;20059;-74
2022/05/17 08:48:28;;;;;;;17.10;6.00;;;;;;;;;;10440699;28;20135;-77
2022/05/17 08:53:29;;;;;;;15.95;6.28;;;;;;;;;;10450886;28;20091;-77
2022/05/17 08:58:32;;;;;;;14.23;6.45;;;;;;;;;;10422988;28;20052;-76
2022/05/17 09:03:52;;;;;;;11.98;5.57;;;;;;;;;;10463975;28;20122;-74
2022/05/17 09:09:01;;;;;;;13.68;5.60;;;;;;;;;;10450153;28;20133;-76
2022/05/17 09:14:15;;;;;;;14.82;5.95;;;;;;;;;;10449823;28;20050;-74
2022/05/17 09:19:21;;;;;;;14.60;6.23;;;;;;;;;;10439756;28;20072;-73
2022/05/17 09:24:24;;;;;;;16.02;5.53;;;;;;;;;;10441466;28;20045;-72
2022/05/17 09:29:37;;;;;;;15.88;5.55;;;;;;;;;;10404084;28;20171;-72
2022/05/17 09:34:41;;;;;;;12.38;5.75;;;;;;;;;;10451058;28;20786;-72
2022/05/17 09:39:50;;;;;;;13.10;5.15;;;;;;;;;;10446963;28;20074;-72
2022/05/17 09:44:52;;;;;;;12.25;4.40;;;;;;;;;;10436841;28;20041;-73
2022/05/17 09:55:14;;;;;;;12.70;4.72;;;;;;;;;;10433439;28;20053;-71
2022/05/17 10:00:21;;;;;;;12.27;5.18;;;;;;;;;;10411135;28;20099;-73
2022/05/17 10:05:25;;;;;;;13.65;4.80;;;;;;;;;;10430400;28;20037;-72
2022/05/17 10:10:31;;;;;;;10.32;4.55;;;;;;;;;;10428899;28;20041;-72
2022/05/17 10:15:35;;;;;;;11.52;3.97;;;;;;;;;;10426938;28;20052;-73
2022/05/17 10:20:43;;;;;;;18.38;4.07;;;;;;;;;;10438013;28;20095;-72
2022/05/17 10:25:48;;;;;;;9.07;3.63;;;;;;;;;;10435687;28;20073;-73
2022/05/17 10:30:55;;;;;;;12.98;4.35;;;;;;;;;;10420022;28;20048;-73
2022/05/17 10:36:02;;;;;;;10.98;3.80;;;;;;;;;;10443435;28;20096;-73
2022/05/17 10:41:09;;;;;;;10.65;3.05;;;;;;;;;;10437843;28;20047;-75
2022/05/17 10:46:18;;;;;;;11.77;3.38;;;;;;;;;;10448383;28;20044;-75
2022/05/17 10:51:22;;;;;;;12.82;3.53;;;;;;;;;;10430236;28;20813;-73
2022/05/17 10:56:47;;;;;;;8.55;2.70;;;;;;;;;;10455577;28;20606;-74
2022/05/17 11:02:01;;;;;;;9.45;3.00;;;;;;;;;;10413990;28;20051;-73
2022/05/17 11:07:02;;;;;;;9.02;3.35;;;;;;;;;;10430012;28;20072;-73
2022/05/17 11:12:09;;;;;;;8.98;3.15;;;;;;;;;;10449666;28;20145;-73
2022/05/17 11:17:25;;;;;;;11.57;3.00;;;;;;;;;;10429027;28;20077;-73
2022/05/17 11:22:33;;;;;;;12.13;2.90;;;;;;;;;;10434566;28;20132;-76
2022/05/17 11:27:52;;;;;;;7.72;2.53;;;;;;;;;;10433547;28;20102;-74
2022/05/17 11:33:09;;;;;;;9.43;2.63;;;;;;;;;;10454725;28;20051;-74
2022/05/17 11:38:16;;;;;;;8.68;2.60;;;;;;;;;;10444643;28;20148;-76
2022/05/17 11:43:41;;;;;;;12.30;2.85;;;;;;;;;;10409799;28;20128;-75
2022/05/17 11:48:44;;;;;;;8.05;2.17;;;;;;;;;;10416781;28;20041;-75
2022/05/17 11:53:46;;;;;;;9.38;2.13;;;;;;;;;;10453015;28;20041;-75
2022/05/17 11:58:49;;;;;;;7.65;2.50;;;;;;;;;;10450896;28;20049;-74
2022/05/17 12:03:53;;;;;;;12.30;2.53;;;;;;;;;;10467786;28;20069;-74
2022/05/17 12:08:55;;;;;;;7.90;2.42;;;;;;;;;;10448642;28;20049;-75
2022/05/17 12:14:08;;;;;;;7.65;2.15;;;;;;;;;;10437553;28;20052;-75
2022/05/17 12:19:10;;;;;;;11.07;2.30;;;;;;;;;;10434858;28;20041;-75
2022/05/17 12:24:30;;;;;;;9.65;2.22;;;;;;;;;;10456311;28;20434;-76
2022/05/17 12:34:57;;;;;;;12.27;2.45;;;;;;;;;;10459131;28;20045;-74
2022/05/17 12:45:27;;;;;;;7.03;2.40;;;;;;;;;;10435797;28;20063;-74
2022/05/17 12:50:46;;;;;;;8.77;2.58;;;;;;;;;;10430357;28;20136;-74
2022/05/17 12:56:14;;;;;;;10.32;1.85;;;;;;;;;;10419744;28;20045;-73
2022/05/17 13:01:21;;;;;;;8.80;2.20;;;;;;;;;;10409065;28;20052;-74
2022/05/17 13:06:30;;;;;;;8.35;2.15;;;;;;;;;;10431490;28;20048;-74
2022/05/17 13:11:32;;;;;;;6.25;2.25;;;;;;;;;;10442925;28;20064;-73
2022/05/17 13:16:40;;;;;;;8.77;2.40;;;;;;;;;;10439735;28;20040;-71
2022/05/17 13:21:44;;;;;;;9.40;2.17;;;;;;;;;;10410315;28;20041;-76
2022/05/17 13:26:46;;;;;;;9.85;2.28;;;;;;;;;;10409646;28;20053;-76
2022/05/17 13:31:55;;;;;;;9.50;2.78;;;;;;;;;;10433936;28;20029;-77
2022/05/17 13:37:05;;;;;;;7.93;2.78;;;;;;;;;;10442576;28;20057;-76
2022/05/17 13:42:17;;;;;;;8.18;2.15;;;;;;;;;;10430851;28;20411;-77
2022/05/17 13:47:24;;;;;;;6.53;2.00;;;;;;;;;;10407243;28;20056;-76
2022/05/17 13:52:31;;;;;;;8.85;2.20;;;;;;;;;;10422610;28;20119;-76
2022/05/17 13:57:35;;;;;;;9.88;2.13;;;;;;;;;;10441009;28;20585;-77
2022/05/17 14:02:41;;;;;;;7.47;2.22;;;;;;;;;;10446148;28;20056;-75
2022/05/17 14:07:51;;;;;;;8.23;2.45;;;;;;;;;;10414149;28;20131;-77
2022/05/17 14:13:04;;;;;;;6.32;2.03;;;;;;;;;;10432705;28;20107;-76
2022/05/17 14:18:09;;;;;;;7.80;2.30;;;;;;;;;;10416151;28;20705;-77
2022/05/17 14:23:11;;;;;;;7.45;1.98;;;;;;;;;;10432312;28;20060;-75
2022/05/17 14:28:12;;;;;;;8.18;2.40;;;;;;;;;;10419693;28;20056;-75
2022/05/17 14:33:15;;;;;;;8.05;2.10;;;;;;;;;;10439926;28;20579;-75
2022/05/17 14:38:17;;;;;;;7.05;1.95;;;;;;;;;;10411826;28;20057;-77
2022/05/17 14:43:18;;;;;;;9.38;1.95;;;;;;;;;;10432570;28;20045;-73
2022/05/17 14:48:21;;;;;;;7.00;1.95;;;;;;;;;;10439371;28;20440;-77
2022/05/17 14:53:23;;;;;;;7.88;1.98;;;;;;;;;;10439621;28;20051;-77
2022/05/17 14:58:25;;;;;;;8.80;1.80;;;;;;;;;;10412223;28;20109;-76
2022/05/17 15:03:29;;;;;;;5.22;1.70;;;;;;;;;;10447274;28;20037;-73
2022/05/17 15:08:32;;;;;;;10.35;2.33;;;;;;;;;;10434921;28;20090;-73
2022/05/17 15:13:34;;;;;;;7.13;1.75;;;;;;;;;;10431568;28;20049;-73
2022/05/17 15:18:37;;;;;;;7.72;1.85;;;;;;;;;;10433433;28;20057;-71
2022/05/17 15:23:39;;;;;;;8.05;1.98;;;;;;;;;;10451684;28;20049;-72
2022/05/17 15:28:41;;;;;;;7.45;2.00;;;;;;;;;;10421519;28;20517;-73
2022/05/17 15:33:44;;;;;;;6.38;1.92;;;;;;;;;;10460509;28;20777;-73
2022/05/17 15:38:46;;;;;;;8.90;1.95;;;;;;;;;;10434222;28;20049;-73
2022/05/17 15:43:48;;;;;;;7.35;1.60;;;;;;;;;;10434224;28;20049;-73
2022/05/17 15:54:11;;;;;;;6.00;1.33;;;;;;;;;;10442381;28;20049;-71
2022/05/17 15:59:14;;;;;;;7.20;1.60;;;;;;;;;;10441272;28;20063;-73
2022/05/17 16:09:39;;;;;;;5.55;1.80;;;;;;;;;;10399353;28;20578;-72
2022/05/17 16:14:40;;;;;;;9.43;2.00;;;;;;;;;;10450758;28;20515;-73
2022/05/17 16:19:47;;;;;;;4.15;1.40;;;;;;;;;;10425013;28;20542;-72
2022/05/17 16:24:49;;;;;;;8.02;2.15;;;;;;;;;;10450211;28;20163;-74
2022/05/17 16:29:51;;;;;;;6.95;1.83;;;;;;;;;;10433843;28;20043;-73
2022/05/17 16:34:52;;;;;;;5.78;1.40;;;;;;;;;;10462725;28;20078;-76
2022/05/17 16:39:54;;;;;;;10.00;2.00;;;;;;;;;;10402674;28;20077;-72
2022/05/17 16:44:55;;;;;;;9.32;1.98;;;;;;;;;;10437217;28;20044;-72
2022/05/17 16:50:00;;;;;;;5.70;1.48;;;;;;;;;;10432601;28;20052;-72
2022/05/17 16:55:02;;;;;;;8.00;1.80;;;;;;;;;;10437149;28;20438;-72
2022/05/17 17:00:05;;;;;;;7.07;1.52;;;;;;;;;;10407177;28;20439;-72
2022/05/17 17:05:18;;;;;;;6.93;1.50;;;;;;;;;;10447760;28;20037;-72
2022/05/17 17:10:25;;;;;;;7.50;2.42;;;;;;;;;;10429897;28;20164;-73
2022/05/17 17:15:27;;;;;;;9.27;3.55;;;;;;;;;;10433685;28;20045;-71
2022/05/17 17:20:28;;;;;;;11.20;4.20;;;;;;;;;;10422834;28;20120;-72
2022/05/17 17:25:31;;;;;;;13.10;4.28;;;;;;;;;;10425143;28;20049;-72
2022/05/17 17:30:33;;;;;;;13.13;4.10;;;;;;;;;;10445158;28;20041;-72
2022/05/17 17:40:55;;;;;;;10.43;4.10;;;;;;;;;;10423765;28;20055;-69
2022/05/17 17:45:58;;;;;;;14.68;5.32;;;;;;;;;;10432263;28;20049;-69
2022/05/17 17:51:00;;;;;;;17.90;6.70;;;;;;;;;;10430458;28;20053;-69
2022/05/17 17:56:01;;;;;;;14.63;7.65;;;;;;;23.25;nan;103529.41;10422930;28;20033;-68
2022/05/17 18:01:03;;;;;;;17.92;8.80;;;;;;;;;;10426443;28;20045;-70
2022/05/17 18:06:05;;;;;;;21.30;9.27;;;;;;;;;;10443803;28;20622;-70
2022/05/17 18:11:09;;;;;;;17.20;8.80;;;;;;;;;;10424606;28;20056;-71
2022/05/17 18:16:14;;;;;;;20.58;9.13;;;;;;;;;;10449590;28;20046;-70
2022/05/17 18:21:16;;;;;;;17.65;9.98;;;;;;;;;;10438073;28;20424;-72
2022/05/17 18:26:19;;;;;;;22.70;10.88;;;;;;;;;;10446308;28;20040;-69
2022/05/17 18:31:21;;;;;;;25.10;13.75;;;;;;;;;;10451208;28;20098;-71
2022/05/17 18:36:27;;;;;;;23.00;13.57;;;;;;;;;;10439054;28;20037;-71
2022/05/17 18:41:28;;;;;;;28.05;14.35;;;;;;;;;;10433478;28;20079;-71
2022/05/17 18:46:33;;;;;;;24.05;14.45;;;;;;;;;;10438301;28;20045;-69
2022/05/17 18:51:34;;;;;;;28.08;13.73;;;;;;;;;;10438292;28;20049;-71
2022/05/17 18:56:36;;;;;;;24.73;13.20;;;;;;;;;;10439596;28;20039;-70
2022/05/17 19:01:37;;;;;;;25.10;14.15;;;;;;;;;;10449826;28;20080;-70
2022/05/17 19:06:41;;;;;;;28.33;15.20;;;;;;;;;;10453423;28;20037;-70
2022/05/17 19:17:03;;;;;;;27.10;15.07;;;;;;;;;;10438900;28;20116;-71
2022/05/17 19:22:08;;;;;;;28.50;15.77;;;;;;;;;;10431249;28;20527;-70
2022/05/17 19:27:09;;;;;;;28.27;17.40;;;;;;;;;;10436445;28;20037;-70
2022/05/17 19:32:14;;;;;;;27.27;16.58;;;;;;;;;;10452350;28;20084;-71
2022/05/17 19:42:42;;;;;;;30.20;17.52;;;;;;;;;;10440568;28;20106;-69
2022/05/17 19:47:49;;;;;;;28.83;17.40;;;;;;;;;;10422534;28;20108;-70
2022/05/17 19:52:51;;;;;;;31.20;18.10;;;;;;;;;;10419294;28;20523;-71
2022/05/17 19:57:53;;;;;;;28.38;18.15;;;;;;;;;;10432775;28;20037;-69
2022/05/17 20:02:55;;;;;;;32.92;17.90;;;;;;;;;;10438650;28;20045;-71
2022/05/17 20:07:56;;;;;;;27.67;17.15;;;;;;;;;;10446074;28;20103;-70
2022/05/17 20:12:58;;;;;;;32.47;19.40;;;;;;;;;;10429336;28;20444;-70
2022/05/17 20:17:59;;;;;;;36.53;18.48;;;;;;;;;;10422245;28;20133;-70
2022/05/17 20:23:03;;;;;;;30.92;17.35;;;;;;;;;;10429835;28;20088;-69
2022/05/17 20:28:06;;;;;;;27.65;18.83;;;;;;;;;;10442859;28;20041;-69
2022/05/17 20:33:10;;;;;;;27.33;18.30;;;;;;;;;;10423122;28;20548;-70
2022/05/17 20:38:12;;;;;;;30.20;19.38;;;;;;;;;;10436214;28;20061;-69
2022/05/17 20:43:13;;;;;;;32.85;20.45;;;;;;;;;;10427330;28;20123;-70
2022/05/17 20:48:18;;;;;;;37.67;19.67;;;;;;;;;;10439426;28;20524;-71
2022/05/17 20:53:21;;;;;;;32.05;18.90;;;;;;;;;;10425660;28;20080;-70
2022/05/17 20:58:22;;;;;;;30.25;20.20;;;;;;;;;;10421824;28;20527;-70
2022/05/17 21:03:23;;;;;;;33.25;19.60;;;;;;;;;;10451640;28;20055;-71
2022/05/17 21:08:25;;;;;;;30.35;19.42;;;;;;;;;;10428758;28;20045;-69
2022/05/17 21:13:28;;;;;;;32.10;20.52;;;;;;;;;;10435038;28;20124;-70
2022/05/17 21:18:33;;;;;;;34.83;21.10;;;;;;;;;;10438293;28;20060;-69
2022/05/17 21:23:36;;;;;;;30.98;19.85;;;;;;;;;;10430800;28;20059;-69
2022/05/17 21:28:37;;;;;;;30.00;20.08;;;;;;;;;;10423766;28;20606;-69
2022/05/17 21:33:39;;;;;;;33.08;19.63;;;;;;;;;;10454146;28;20041;-70
2022/05/17 21:38:43;;;;;;;32.25;20.38;;;;;;;;;;10446976;28;20041;-70
2022/05/17 21:43:44;;;;;;;34.80;20.70;;;;;;;;;;10438658;28;20056;-69
2022/05/17 21:48:46;;;;;;;37.58;20.83;;;;;;;;;;10417783;28;20056;-69
2022/05/17 21:53:47;;;;;;;32.22;19.30;;;;;;;;;;10424634;28;20058;-70
2022/05/17 21:58:49;;;;;;;35.58;19.83;;;;;;;;;;10431340;28;20045;-69
2022/05/17 22:03:50;;;;;;;30.65;19.17;;;;;;;;;;10454405;28;20140;-70
2022/05/17 22:08:52;;;;;;;27.55;18.77;;;;;;;;;;10449569;28;20048;-70
2022/05/17 22:13:53;;;;;;;24.55;18.50;;;;;;;;;;10435271;28;20612;-71
2022/05/17 22:18:59;;;;;;;29.75;18.58;;;;;;;;;;10434093;28;20068;-71
2022/05/17 22:24:02;;;;;;;28.38;19.98;;;;;;;;;;10417388;28;20049;-70
2022/05/17 22:29:04;;;;;;;32.83;20.48;;;;;;;;;;10446920;28;20593;-71
2022/05/17 22:34:06;;;;;;;28.98;18.58;;;;;;;;;;10455870;28;20104;-70
2022/05/17 22:39:07;;;;;;;28.90;18.63;;;;;;;;;;10449032;28;20499;-69
2022/05/17 22:44:09;;;;;;;30.13;18.58;;;;;;;;;;10442443;28;20115;-69
2022/05/17 22:49:10;;;;;;;27.15;18.33;;;;;;;;;;10449233;28;20846;-70
2022/05/17 22:54:12;;;;;;;26.58;18.00;;;;;;;;;;10431583;28;20528;-70
2022/05/17 22:59:14;;;;;;;26.60;17.23;;;;;;;;;;10441442;28;20041;-71
2022/05/17 23:04:15;;;;;;;27.40;17.25;;;;;;;;;;10460013;28;20072;-71
2022/05/17 23:09:17;;;;;;;28.60;17.15;;;;;;;;;;10435196;28;20111;-71
2022/05/17 23:14:18;;;;;;;26.90;17.52;;;;;;;;;;10448668;28;20127;-70
2022/05/17 23:19:20;;;;;;;22.27;16.02;;;;;;;;;;10452544;28;20051;-72
2022/05/17 23:29:42;;;;;;;27.83;15.45;;;;;;;;;;10442874;28;20571;-70
2022/05/17 23:34:44;;;;;;;27.58;15.75;;;;;;;;;;10460961;28;20041;-70
2022/05/17 23:39:45;;;;;;;23.52;15.75;;;;;;;;;;10448825;28;20049;-70
2022/05/17 23:44:47;;;;;;;20.67;14.93;;;;;;;;;;10452994;28;20052;-70
2022/05/17 23:49:48;;;;;;;22.15;14.57;;;;;;;;;;10437908;28;20055;-71
2022/05/17 23:54:51;;;;;;;20.95;15.35;;;;;;;;;;10450277;28;20444;-70
2022/05/17 23:59:52;;;;;;;23.77;14.20;;;;;;;;;;10457605;28;20047;-71
